Thunder radar more information blitzortung!


Radar de pluja more information rain snow radar


Visita la nostra xarxa de llocs de meteo:

Template documentation
and downloads

And another site



No particular awareness of the weather is required.    There are no Weather-warnings

Pagina Historial Weather Underground text

Diari Resum Setembre 8, 2017 Unitats:  Tant    Imperial   Mètric
« Previous Dia
SegĂźent Dia »
Diari Setmana Mensual Anual Personalitzada
  Maxima: Minima: Media:
Temperatura: 78.4 °F /  25.8 °C 61.3 °F /  16.3 °C 71.4 °F /  21.9 °C
Punt de rosada: 61.2 °F /  16.2 °C 52.9 °F /  11.6 °C 55.8 °F /  13.2 °C
Humitat: 77 % 44 % 59 %
Wind Speed: 12.8 mph /  20.6 km/h - 4.5 mph /  7.3 km/h
RĂ fegues de vent: 12.8 mph /  20.6 km/h - -
Vent:- - SE
Pression baro: 30 in /  1014.8 hPa 29.7 in /  1005.0 hPa -
Precipitacions: 0 in /  0.0 mm    
Historical Graphs
 
 
Dades de taula per Setembre 8, 2017
Temps Temperatura Punt de rosada Pression baro Vent Wind Speed RĂ fegues de vent Humitat Rainfall Rate (Hourly)
00:01 67.6 °F /  19.8 °C 55.6 °F /  13.1 °C 30 in /  1014.8 hPa West 2.3 mph /  3.7 km/h 2.3 mph /  3.7 km/h 65 % 0 in /  0.0 mm
00:06 67.5 °F /  19.7 °C 55.2 °F /  12.9 °C 30 in /  1014.8 hPa West 1.4 mph /  2.3 km/h 1.4 mph /  2.3 km/h 65 % 0 in /  0.0 mm
10:29 61.3 °F /  16.3 °C 54.1 °F /  12.3 °C 29.9 in /  1013.8 hPa West 1.2 mph /  1.9 km/h   77 % 0 in /  0.0 mm
10:30 61.3 °F /  16.3 °C 54.1 °F /  12.3 °C 29.9 in /  1013.8 hPa West 1.2 mph /  1.9 km/h   77 % 0 in /  0.0 mm
10:31 61.3 °F /  16.3 °C 54.1 °F /  12.3 °C 29.9 in /  1013.8 hPa West 1.2 mph /  1.9 km/h   77 % 0 in /  0.0 mm
10:36 66.6 °F /  19.2 °C 56.1 °F /  13.4 °C 30 in /  1014.8 hPa West 1.4 mph /  2.3 km/h   69 % 0 in /  0.0 mm
10:41 66.9 °F /  19.4 °C 56.5 °F /  13.6 °C 30 in /  1014.8 hPa SSE 2.3 mph /  3.7 km/h 2.3 mph /  3.7 km/h 69 % 0 in /  0.0 mm
10:46 67.1 °F /  19.5 °C 56.1 °F /  13.4 °C 30 in /  1014.8 hPa Calm     68 % 0 in /  0.0 mm
10:51 68 °F /  20.0 °C 56.7 °F /  13.7 °C 30 in /  1014.8 hPa ENE 3.5 mph /  5.6 km/h 3.5 mph /  5.6 km/h 67 % 0 in /  0.0 mm
10:56 68.2 °F /  20.1 °C 56.5 °F /  13.6 °C 30 in /  1014.8 hPa NE 3.5 mph /  5.6 km/h 3.5 mph /  5.6 km/h 66 % 0 in /  0.0 mm
11:01 68.7 °F /  20.4 °C 56.8 °F /  13.8 °C 30 in /  1014.8 hPa ENE 3.5 mph /  5.6 km/h 3.5 mph /  5.6 km/h 66 % 0 in /  0.0 mm
11:06 68.7 °F /  20.4 °C 56.8 °F /  13.8 °C 30 in /  1014.8 hPa East 3.5 mph /  5.6 km/h 3.5 mph /  5.6 km/h 66 % 0 in /  0.0 mm
11:11 69.4 °F /  20.8 °C 57.6 °F /  14.2 °C 30 in /  1014.8 hPa NE 3.5 mph /  5.6 km/h 3.5 mph /  5.6 km/h 66 % 0 in /  0.0 mm
11:16 69.4 °F /  20.8 °C 57.6 °F /  14.2 °C 30 in /  1014.8 hPa ENE 3.5 mph /  5.6 km/h 3.5 mph /  5.6 km/h 66 % 0 in /  0.0 mm
11:21 70 °F /  21.1 °C 58.1 °F /  14.5 °C 30 in /  1014.8 hPa ENE 3.5 mph /  5.6 km/h 3.5 mph /  5.6 km/h 66 % 0 in /  0.0 mm
11:26 70.7 °F /  21.5 °C 58.8 °F /  14.9 °C 30 in /  1014.8 hPa NW 2.3 mph /  3.7 km/h 2.3 mph /  3.7 km/h 66 % 0 in /  0.0 mm
11:31 71.1 °F /  21.7 °C 58.6 °F /  14.8 °C 30 in /  1014.8 hPa ENE 3.5 mph /  5.6 km/h 3.5 mph /  5.6 km/h 65 % 0 in /  0.0 mm
11:36 71.8 °F /  22.1 °C 58.8 °F /  14.9 °C 30 in /  1014.8 hPa ENE 6 mph /  9.7 km/h 6 mph /  9.7 km/h 64 % 0 in /  0.0 mm
11:41 72 °F /  22.2 °C 59.2 °F /  15.1 °C 30 in /  1014.8 hPa NNE 5.8 mph /  9.3 km/h 5.8 mph /  9.3 km/h 64 % 0 in /  0.0 mm
11:46 71.8 °F /  22.1 °C 58.8 °F /  14.9 °C 30 in /  1014.8 hPa SW 5.8 mph /  9.3 km/h 5.8 mph /  9.3 km/h 64 % 0 in /  0.0 mm
11:51 72.5 °F /  22.5 °C 59.5 °F /  15.3 °C 30 in /  1014.8 hPa NNE 6.9 mph /  11.1 km/h 6.9 mph /  11.1 km/h 64 % 0 in /  0.0 mm
11:56 72.7 °F /  22.6 °C 59.7 °F /  15.4 °C 30 in /  1014.8 hPa NE 5.6 mph /  9.0 km/h 5.6 mph /  9.0 km/h 64 % 0 in /  0.0 mm
12:01 72.9 °F /  22.7 °C 59.2 °F /  15.1 °C 30 in /  1014.8 hPa SSE 5.8 mph /  9.3 km/h 5.8 mph /  9.3 km/h 62 % 0 in /  0.0 mm
12:06 73.8 °F /  23.2 °C 59.9 °F /  15.5 °C 30 in /  1014.8 hPa NNE 3.8 mph /  6.1 km/h 3.8 mph /  6.1 km/h 62 % 0 in /  0.0 mm
12:11 73.4 °F /  23.0 °C 59.5 °F /  15.3 °C 29.9 in /  1013.8 hPa SW 2.6 mph /  4.2 km/h 2.6 mph /  4.2 km/h 62 % 0 in /  0.0 mm
12:16 75 °F /  23.9 °C 61.2 °F /  16.2 °C 29.9 in /  1013.8 hPa WNW 2.3 mph /  3.7 km/h 2.3 mph /  3.7 km/h 62 % 0 in /  0.0 mm
12:21 74.7 °F /  23.7 °C 60.3 °F /  15.7 °C 29.9 in /  1013.8 hPa East 4.9 mph /  7.9 km/h 4.9 mph /  7.9 km/h 61 % 0 in /  0.0 mm
12:26 73.6 °F /  23.1 °C 59.7 °F /  15.4 °C 29.9 in /  1013.8 hPa ESE 5.8 mph /  9.3 km/h 5.8 mph /  9.3 km/h 62 % 0 in /  0.0 mm
12:31 73.2 °F /  22.9 °C 59.4 °F /  15.2 °C 29.9 in /  1013.8 hPa East 6.9 mph /  11.1 km/h 6.9 mph /  11.1 km/h 62 % 0 in /  0.0 mm
12:36 73.4 °F /  23.0 °C 59.2 °F /  15.1 °C 29.9 in /  1013.8 hPa SE 5.8 mph /  9.3 km/h 5.8 mph /  9.3 km/h 61 % 0 in /  0.0 mm
12:41 74.1 °F /  23.4 °C 60.3 °F /  15.7 °C 29.9 in /  1013.8 hPa SSE 6 mph /  9.7 km/h 6 mph /  9.7 km/h 62 % 0 in /  0.0 mm
12:46 74.1 °F /  23.4 °C 59.7 °F /  15.4 °C 29.9 in /  1013.8 hPa South 5.8 mph /  9.3 km/h 5.8 mph /  9.3 km/h 61 % 0 in /  0.0 mm
12:51 73.8 °F /  23.2 °C 59.9 °F /  15.5 °C 29.9 in /  1013.8 hPa ESE 6.9 mph /  11.1 km/h 6.9 mph /  11.1 km/h 62 % 0 in /  0.0 mm
12:56 73.8 °F /  23.2 °C 59.9 °F /  15.5 °C 29.9 in /  1012.8 hPa East 4.6 mph /  7.4 km/h 4.6 mph /  7.4 km/h 62 % 0 in /  0.0 mm
13:01 74.5 °F /  23.6 °C 61.2 °F /  16.2 °C 29.9 in /  1012.8 hPa SE 4.6 mph /  7.4 km/h 4.7 mph /  7.6 km/h 63 % 0 in /  0.0 mm
13:06 74.8 °F /  23.8 °C 61 °F /  16.1 °C 29.9 in /  1013.8 hPa ESE 6.9 mph /  11.1 km/h 6.9 mph /  11.1 km/h 62 % 0 in /  0.0 mm
13:11 74.3 °F /  23.5 °C 60.1 °F /  15.6 °C 29.9 in /  1013.8 hPa East 8.1 mph /  13.0 km/h 8.1 mph /  13.0 km/h 61 % 0 in /  0.0 mm
13:16 74.5 °F /  23.6 °C 60.1 °F /  15.6 °C 29.9 in /  1013.8 hPa ESE 5.8 mph /  9.3 km/h 5.8 mph /  9.3 km/h 61 % 0 in /  0.0 mm
13:21 74.5 °F /  23.6 °C 60.1 °F /  15.6 °C 29.9 in /  1013.8 hPa SSE 5.8 mph /  9.3 km/h 5.8 mph /  9.3 km/h 61 % 0 in /  0.0 mm
13:26 74.3 °F /  23.5 °C 60.4 °F /  15.8 °C 29.9 in /  1013.8 hPa WSW 6.9 mph /  11.1 km/h 6.9 mph /  11.1 km/h 62 % 0 in /  0.0 mm
13:31 73.9 °F /  23.3 °C 60.1 °F /  15.6 °C 29.9 in /  1013.8 hPa South 9.2 mph /  14.8 km/h 9.2 mph /  14.8 km/h 62 % 0 in /  0.0 mm
13:36 74.1 °F /  23.4 °C 60.3 °F /  15.7 °C 29.9 in /  1013.8 hPa ESE 9.2 mph /  14.8 km/h 9.2 mph /  14.8 km/h 62 % 0 in /  0.0 mm
13:41 74.1 °F /  23.4 °C 59.7 °F /  15.4 °C 29.9 in /  1013.8 hPa East 10.4 mph /  16.7 km/h 10.4 mph /  16.7 km/h 61 % 0 in /  0.0 mm
13:46 74.1 °F /  23.4 °C 59.7 °F /  15.4 °C 29.9 in /  1013.8 hPa East 4.9 mph /  7.9 km/h 4.9 mph /  7.9 km/h 61 % 0 in /  0.0 mm
13:51 74.5 °F /  23.6 °C 60.1 °F /  15.6 °C 29.9 in /  1012.8 hPa East 5.9 mph /  9.5 km/h 5.9 mph /  9.5 km/h 61 % 0 in /  0.0 mm
13:56 74.5 °F /  23.6 °C 60.1 °F /  15.6 °C 29.9 in /  1012.8 hPa South 8.1 mph /  13.0 km/h 8.1 mph /  13.0 km/h 61 % 0 in /  0.0 mm
14:01 74.8 °F /  23.8 °C 60.4 °F /  15.8 °C 29.9 in /  1012.8 hPa SSW 6.9 mph /  11.1 km/h 6.9 mph /  11.1 km/h 61 % 0 in /  0.0 mm
14:06 74.5 °F /  23.6 °C 60.1 °F /  15.6 °C 29.9 in /  1012.8 hPa ENE 8.1 mph /  13.0 km/h 8.1 mph /  13.0 km/h 61 % 0 in /  0.0 mm
14:11 74.1 °F /  23.4 °C 59.7 °F /  15.4 °C 29.9 in /  1012.8 hPa ESE 5.8 mph /  9.3 km/h 5.8 mph /  9.3 km/h 61 % 0 in /  0.0 mm
14:16 74.3 °F /  23.5 °C 59.5 °F /  15.3 °C 29.9 in /  1012.8 hPa East 12.1 mph /  19.5 km/h 12.1 mph /  19.5 km/h 60 % 0 in /  0.0 mm
14:21 74.5 °F /  23.6 °C 59.7 °F /  15.4 °C 29.9 in /  1012.8 hPa ESE 6.9 mph /  11.1 km/h 6.9 mph /  11.1 km/h 60 % 0 in /  0.0 mm
14:26 74.8 °F /  23.8 °C 60.1 °F /  15.6 °C 29.9 in /  1012.8 hPa ESE 8.5 mph /  13.7 km/h 8.5 mph /  13.7 km/h 60 % 0 in /  0.0 mm
14:31 75.7 °F /  24.3 °C 59.9 °F /  15.5 °C 29.9 in /  1012.8 hPa SW 6.9 mph /  11.1 km/h 6.9 mph /  11.1 km/h 58 % 0 in /  0.0 mm
14:36 75.2 °F /  24.0 °C 59.4 °F /  15.2 °C 29.9 in /  1011.7 hPa NE 10.4 mph /  16.7 km/h 10.4 mph /  16.7 km/h 58 % 0 in /  0.0 mm
14:41 75.2 °F /  24.0 °C 59.9 °F /  15.5 °C 29.9 in /  1011.7 hPa SE 9.8 mph /  15.8 km/h 9.8 mph /  15.8 km/h 59 % 0 in /  0.0 mm
14:46 75.2 °F /  24.0 °C 58.8 °F /  14.9 °C 29.9 in /  1011.7 hPa ESE 10.4 mph /  16.7 km/h 10.4 mph /  16.7 km/h 57 % 0 in /  0.0 mm
14:51 75.6 °F /  24.2 °C 59.4 °F /  15.2 °C 29.9 in /  1011.7 hPa East 9.8 mph /  15.8 km/h 9.8 mph /  15.8 km/h 57 % 0 in /  0.0 mm
14:56 75 °F /  23.9 °C 58.3 °F /  14.6 °C 29.9 in /  1011.7 hPa ENE 9.2 mph /  14.8 km/h 9.2 mph /  14.8 km/h 56 % 0 in /  0.0 mm
15:01 75 °F /  23.9 °C 58.3 °F /  14.6 °C 29.9 in /  1011.7 hPa SE 9.2 mph /  14.8 km/h 9.2 mph /  14.8 km/h 56 % 0 in /  0.0 mm
15:06 75.7 °F /  24.3 °C 58.5 °F /  14.7 °C 29.9 in /  1011.7 hPa East 6.9 mph /  11.1 km/h 6.9 mph /  11.1 km/h 55 % 0 in /  0.0 mm
15:11 75.9 °F /  24.4 °C 58.1 °F /  14.5 °C 29.9 in /  1011.7 hPa ESE 9.2 mph /  14.8 km/h 9.2 mph /  14.8 km/h 54 % 0 in /  0.0 mm
15:16 76.3 °F /  24.6 °C 57.9 °F /  14.4 °C 29.9 in /  1011.7 hPa SSE 10.4 mph /  16.7 km/h 10.4 mph /  16.7 km/h 53 % 0 in /  0.0 mm
15:21 76.3 °F /  24.6 °C 57.9 °F /  14.4 °C 29.8 in /  1010.7 hPa ESE 9.2 mph /  14.8 km/h 9.2 mph /  14.8 km/h 53 % 0 in /  0.0 mm
15:26 75.7 °F /  24.3 °C 56.8 °F /  13.8 °C 29.8 in /  1010.7 hPa East 10.4 mph /  16.7 km/h 10.4 mph /  16.7 km/h 52 % 0 in /  0.0 mm
15:31 75.6 °F /  24.2 °C 56.7 °F /  13.7 °C 29.8 in /  1010.7 hPa ESE 5.9 mph /  9.5 km/h 5.9 mph /  9.5 km/h 52 % 0 in /  0.0 mm
15:36 75.9 °F /  24.4 °C 57 °F /  13.9 °C 29.9 in /  1011.7 hPa South 9.2 mph /  14.8 km/h 9.2 mph /  14.8 km/h 52 % 0 in /  0.0 mm
15:41 75.7 °F /  24.3 °C 57.4 °F /  14.1 °C 29.9 in /  1011.7 hPa SE 5.8 mph /  9.3 km/h 5.9 mph /  9.5 km/h 53 % 0 in /  0.0 mm
15:46 76.3 °F /  24.6 °C 57.4 °F /  14.1 °C 29.9 in /  1011.7 hPa East 9.2 mph /  14.8 km/h 9.2 mph /  14.8 km/h 52 % 0 in /  0.0 mm
15:51 76.3 °F /  24.6 °C 56.8 °F /  13.8 °C 29.9 in /  1011.7 hPa ENE 9.2 mph /  14.8 km/h 9.2 mph /  14.8 km/h 51 % 0 in /  0.0 mm
15:56 76.1 °F /  24.5 °C 55.6 °F /  13.1 °C 29.9 in /  1011.7 hPa ESE 12.7 mph /  20.4 km/h 12.7 mph /  20.4 km/h 49 % 0 in /  0.0 mm
16:01 76.3 °F /  24.6 °C 55.8 °F /  13.2 °C 29.9 in /  1011.7 hPa ESE 10.4 mph /  16.7 km/h 10.4 mph /  16.7 km/h 49 % 0 in /  0.0 mm
16:06 76.1 °F /  24.5 °C 55 °F /  12.8 °C 29.9 in /  1012.8 hPa ESE 11.5 mph /  18.5 km/h 11.5 mph /  18.5 km/h 48 % 0 in /  0.0 mm
16:11 76.5 °F /  24.7 °C 55.2 °F /  12.9 °C 29.9 in /  1012.8 hPa ESE 9.2 mph /  14.8 km/h 9.2 mph /  14.8 km/h 48 % 0 in /  0.0 mm
16:16 76.8 °F /  24.9 °C 55.6 °F /  13.1 °C 29.9 in /  1012.8 hPa ESE 9.2 mph /  14.8 km/h 9.2 mph /  14.8 km/h 48 % 0 in /  0.0 mm
16:21 76.8 °F /  24.9 °C 55.6 °F /  13.1 °C 29.9 in /  1011.7 hPa SE 8.1 mph /  13.0 km/h 8.1 mph /  13.0 km/h 48 % 0 in /  0.0 mm
16:26 77.2 °F /  25.1 °C 55.4 °F /  13.0 °C 29.9 in /  1011.7 hPa SSE 12.7 mph /  20.4 km/h 12.7 mph /  20.4 km/h 47 % 0 in /  0.0 mm
16:31 77.7 °F /  25.4 °C 55.9 °F /  13.3 °C 29.9 in /  1011.7 hPa ESE 9.2 mph /  14.8 km/h 9.2 mph /  14.8 km/h 47 % 0 in /  0.0 mm
16:36 78.4 °F /  25.8 °C 56.5 °F /  13.6 °C 29.9 in /  1011.7 hPa ENE 3.5 mph /  5.6 km/h 3.5 mph /  5.6 km/h 47 % 0 in /  0.0 mm
16:41 77.5 °F /  25.3 °C 55 °F /  12.8 °C 29.9 in /  1011.7 hPa East 8.1 mph /  13.0 km/h 8.1 mph /  13.0 km/h 46 % 0 in /  0.0 mm
16:46 77 °F /  25.0 °C 54 °F /  12.2 °C 29.9 in /  1011.7 hPa ENE 10.4 mph /  16.7 km/h 10.4 mph /  16.7 km/h 45 % 0 in /  0.0 mm
16:51 76.6 °F /  24.8 °C 54.3 °F /  12.4 °C 29.8 in /  1010.7 hPa ESE 6.9 mph /  11.1 km/h 6.9 mph /  11.1 km/h 46 % 0 in /  0.0 mm
16:52 76.8 °F /  24.9 °C 54.5 °F /  12.5 °C 29.8 in /  1010.7 hPa ESE 6.9 mph /  11.1 km/h 6.9 mph /  11.1 km/h 46 % 0 in /  0.0 mm
16:57 77.2 °F /  25.1 °C 54.1 °F /  12.3 °C 29.8 in /  1010.7 hPa ESE 9.2 mph /  14.8 km/h 9.2 mph /  14.8 km/h 45 % 0 in /  0.0 mm
17:02 76.6 °F /  24.8 °C 54.3 °F /  12.4 °C 29.8 in /  1010.7 hPa East 11.5 mph /  18.5 km/h 11.5 mph /  18.5 km/h 46 % 0 in /  0.0 mm
17:07 76.6 °F /  24.8 °C 53.8 °F /  12.1 °C 29.8 in /  1010.7 hPa ESE 10.4 mph /  16.7 km/h 10.4 mph /  16.7 km/h 45 % 0 in /  0.0 mm
17:12 76.8 °F /  24.9 °C 54 °F /  12.2 °C 29.8 in /  1010.7 hPa ESE 11.5 mph /  18.5 km/h 11.5 mph /  18.5 km/h 45 % 0 in /  0.0 mm
17:17 77 °F /  25.0 °C 53.4 °F /  11.9 °C 29.8 in /  1010.7 hPa ESE 12.3 mph /  19.8 km/h 12.3 mph /  19.8 km/h 44 % 0 in /  0.0 mm
17:22 76.3 °F /  24.6 °C 53.4 °F /  11.9 °C 29.8 in /  1010.7 hPa SE 12.7 mph /  20.4 km/h 12.7 mph /  20.4 km/h 45 % 0 in /  0.0 mm
17:27 75.9 °F /  24.4 °C 54.1 °F /  12.3 °C 29.8 in /  1010.7 hPa ESE 8.1 mph /  13.0 km/h 8.1 mph /  13.0 km/h 47 % 0 in /  0.0 mm
17:32 75.9 °F /  24.4 °C 54.1 °F /  12.3 °C 29.8 in /  1010.7 hPa ENE 12.8 mph /  20.6 km/h 12.8 mph /  20.6 km/h 47 % 0 in /  0.0 mm
17:37 75.7 °F /  24.3 °C 54.1 °F /  12.3 °C 29.8 in /  1010.0 hPa ESE 10.4 mph /  16.7 km/h 10.4 mph /  16.7 km/h 47 % 0 in /  0.0 mm
17:42 75.7 °F /  24.3 °C 54.1 °F /  12.3 °C 29.8 in /  1010.0 hPa ESE 8.1 mph /  13.0 km/h 8.1 mph /  13.0 km/h 47 % 0 in /  0.0 mm
17:47 75.7 °F /  24.3 °C 54.1 °F /  12.3 °C 29.8 in /  1010.0 hPa East 6.9 mph /  11.1 km/h 6.9 mph /  11.1 km/h 47 % 0 in /  0.0 mm
17:52 75.7 °F /  24.3 °C 54.7 °F /  12.6 °C 29.8 in /  1010.7 hPa SSE 8.1 mph /  13.0 km/h 8.1 mph /  13.0 km/h 48 % 0 in /  0.0 mm
17:57 75.7 °F /  24.3 °C 54.7 °F /  12.6 °C 29.8 in /  1010.7 hPa ESE 8.1 mph /  13.0 km/h 8.1 mph /  13.0 km/h 48 % 0 in /  0.0 mm
18:02 76.1 °F /  24.5 °C 55 °F /  12.8 °C 29.8 in /  1010.7 hPa South 4.6 mph /  7.4 km/h 4.6 mph /  7.4 km/h 48 % 0 in /  0.0 mm
18:07 75.9 °F /  24.4 °C 54.9 °F /  12.7 °C 29.8 in /  1010.0 hPa SSE 4.9 mph /  7.9 km/h 5.4 mph /  8.7 km/h 48 % 0 in /  0.0 mm
18:12 75.2 °F /  24.0 °C 54.7 °F /  12.6 °C 29.8 in /  1010.0 hPa ENE 9.2 mph /  14.8 km/h 9.2 mph /  14.8 km/h 49 % 0 in /  0.0 mm
18:17 75.2 °F /  24.0 °C 54.7 °F /  12.6 °C 29.8 in /  1010.0 hPa ENE 5.8 mph /  9.3 km/h 5.8 mph /  9.3 km/h 49 % 0 in /  0.0 mm
18:22 74.8 °F /  23.8 °C 54.3 °F /  12.4 °C 29.8 in /  1010.0 hPa East 8.1 mph /  13.0 km/h 8.1 mph /  13.0 km/h 49 % 0 in /  0.0 mm
18:27 74.7 °F /  23.7 °C 54.9 °F /  12.7 °C 29.8 in /  1010.0 hPa ESE 8.1 mph /  13.0 km/h 8.1 mph /  13.0 km/h 50 % 0 in /  0.0 mm
18:32 74.3 °F /  23.5 °C 54.5 °F /  12.5 °C 29.8 in /  1010.0 hPa SE 8.1 mph /  13.0 km/h 8.1 mph /  13.0 km/h 50 % 0 in /  0.0 mm
18:37 74.5 °F /  23.6 °C 54.7 °F /  12.6 °C 29.8 in /  1010.0 hPa East 7.8 mph /  12.6 km/h 7.8 mph /  12.6 km/h 50 % 0 in /  0.0 mm
18:42 74.1 °F /  23.4 °C 54.3 °F /  12.4 °C 29.8 in /  1010.0 hPa ESE 8.1 mph /  13.0 km/h 8.1 mph /  13.0 km/h 50 % 0 in /  0.0 mm
18:47 73.9 °F /  23.3 °C 54.1 °F /  12.3 °C 29.8 in /  1010.0 hPa ESE 6.2 mph /  10.0 km/h 6.2 mph /  10.0 km/h 50 % 0 in /  0.0 mm
18:52 73.9 °F /  23.3 °C 54.1 °F /  12.3 °C 29.8 in /  1010.0 hPa East 9.2 mph /  14.8 km/h 9.2 mph /  14.8 km/h 50 % 0 in /  0.0 mm
18:57 73.8 °F /  23.2 °C 54 °F /  12.2 °C 29.8 in /  1010.0 hPa ESE 6.9 mph /  11.1 km/h 6.9 mph /  11.1 km/h 50 % 0 in /  0.0 mm
19:02 73.8 °F /  23.2 °C 54.5 °F /  12.5 °C 29.8 in /  1010.0 hPa ESE 8.5 mph /  13.7 km/h 8.5 mph /  13.7 km/h 51 % 0 in /  0.0 mm
19:07 73.6 °F /  23.1 °C 54.3 °F /  12.4 °C 29.8 in /  1009.0 hPa East 4.7 mph /  7.6 km/h 4.7 mph /  7.6 km/h 51 % 0 in /  0.0 mm
19:12 73.6 °F /  23.1 °C 54.9 °F /  12.7 °C 29.8 in /  1009.0 hPa ESE 5.8 mph /  9.3 km/h 5.8 mph /  9.3 km/h 52 % 0 in /  0.0 mm
19:15 66.7 °F /  19.3 °C 53.8 °F /  12.1 °C 30 in /  1014.8 hPa Calm     63 % 0 in /  0.0 mm
19:17 73.4 °F /  23.0 °C 54.7 °F /  12.6 °C 29.8 in /  1009.0 hPa ESE 5.8 mph /  9.3 km/h 5.8 mph /  9.3 km/h 52 % 0 in /  0.0 mm
19:22 73.4 °F /  23.0 °C 54.7 °F /  12.6 °C 29.8 in /  1010.0 hPa SSE 6.2 mph /  10.0 km/h 6.2 mph /  10.0 km/h 52 % 0 in /  0.0 mm
19:25 66.7 °F /  19.3 °C 53.8 °F /  12.1 °C 29.8 in /  1010.0 hPa Calm     63 % 0 in /  0.0 mm
19:27 73 °F /  22.8 °C 54.9 °F /  12.7 °C 29.8 in /  1010.0 hPa ESE 6.9 mph /  11.1 km/h 6.9 mph /  11.1 km/h 53 % 0 in /  0.0 mm
19:32 73 °F /  22.8 °C 54.9 °F /  12.7 °C 29.8 in /  1010.0 hPa ESE 5.8 mph /  9.3 km/h 5.8 mph /  9.3 km/h 53 % 0 in /  0.0 mm
19:35 66.4 °F /  19.1 °C 53.4 °F /  11.9 °C 29.8 in /  1010.0 hPa Calm     63 % 0 in /  0.0 mm
19:37 72.9 °F /  22.7 °C 55.2 °F /  12.9 °C 29.8 in /  1010.0 hPa East 6.9 mph /  11.1 km/h 6.9 mph /  11.1 km/h 54 % 0 in /  0.0 mm
19:38 72.9 °F /  22.7 °C 55.2 °F /  12.9 °C 29.8 in /  1010.0 hPa ESE 5.8 mph /  9.3 km/h 5.8 mph /  9.3 km/h 54 % 0 in /  0.0 mm
19:43 72.7 °F /  22.6 °C 55 °F /  12.8 °C 29.8 in /  1010.0 hPa ESE 6 mph /  9.7 km/h 6 mph /  9.7 km/h 54 % 0 in /  0.0 mm
19:45 66.2 °F /  19.0 °C 53.2 °F /  11.8 °C 29.8 in /  1010.0 hPa Calm   1 mph /  1.6 km/h 63 % 0 in /  0.0 mm
19:48 72.5 °F /  22.5 °C 55.4 °F /  13.0 °C 29.8 in /  1010.0 hPa SE 4.6 mph /  7.4 km/h 4.6 mph /  7.4 km/h 55 % 0 in /  0.0 mm
19:53 72.3 °F /  22.4 °C 55.2 °F /  12.9 °C 29.8 in /  1010.0 hPa ESE 5.8 mph /  9.3 km/h 5.8 mph /  9.3 km/h 55 % 0 in /  0.0 mm
19:55 66.2 °F /  19.0 °C 53.2 °F /  11.8 °C 29.8 in /  1010.0 hPa Calm     63 % 0 in /  0.0 mm
19:58 72.1 °F /  22.3 °C 55 °F /  12.8 °C 29.8 in /  1010.0 hPa ESE 4.9 mph /  7.9 km/h 4.9 mph /  7.9 km/h 55 % 0 in /  0.0 mm
20:03 72.1 °F /  22.3 °C 55 °F /  12.8 °C 29.8 in /  1010.0 hPa East 3.1 mph /  5.0 km/h 3.1 mph /  5.0 km/h 55 % 0 in /  0.0 mm
20:05 66.2 °F /  19.0 °C 53.2 °F /  11.8 °C 29.8 in /  1010.0 hPa Calm     63 % 0 in /  0.0 mm
20:08 72 °F /  22.2 °C 54.9 °F /  12.7 °C 29.8 in /  1010.0 hPa ESE 4.6 mph /  7.4 km/h 4.6 mph /  7.4 km/h 55 % 0 in /  0.0 mm
20:13 71.8 °F /  22.1 °C 54.7 °F /  12.6 °C 29.8 in /  1010.0 hPa ESE 2.3 mph /  3.7 km/h 2.3 mph /  3.7 km/h 55 % 0 in /  0.0 mm
20:15 66.6 °F /  19.2 °C 53.6 °F /  12.0 °C 29.8 in /  1010.0 hPa SW 1 mph /  1.6 km/h 2 mph /  3.2 km/h 63 % 0 in /  0.0 mm
20:18 71.6 °F /  22.0 °C 55 °F /  12.8 °C 29.8 in /  1010.0 hPa ESE 4.3 mph /  6.9 km/h 4.3 mph /  6.9 km/h 56 % 0 in /  0.0 mm
20:23 71.6 °F /  22.0 °C 54.7 °F /  12.6 °C 29.8 in /  1010.0 hPa East 2.3 mph /  3.7 km/h 2.3 mph /  3.7 km/h 55 % 0 in /  0.0 mm
20:25 66.7 °F /  19.3 °C 54.1 °F /  12.3 °C 29.8 in /  1009.0 hPa Calm   1 mph /  1.6 km/h 64 % 0 in /  0.0 mm
20:28 71.2 °F /  21.8 °C 54.7 °F /  12.6 °C 29.8 in /  1010.0 hPa SW 2.3 mph /  3.7 km/h 2.3 mph /  3.7 km/h 56 % 0 in /  0.0 mm
20:33 70.9 °F /  21.6 °C 54.9 °F /  12.7 °C 29.8 in /  1010.0 hPa SSW 1.2 mph /  1.9 km/h   57 % 0 in /  0.0 mm
20:35 66.7 °F /  19.3 °C 54.1 °F /  12.3 °C 29.8 in /  1009.0 hPa Calm   1 mph /  1.6 km/h 64 % 0 in /  0.0 mm
20:38 70.7 °F /  21.5 °C 54.7 °F /  12.6 °C 29.8 in /  1010.0 hPa Calm     57 % 0 in /  0.0 mm
20:43 70.5 °F /  21.4 °C 54.5 °F /  12.5 °C 29.8 in /  1010.0 hPa Calm     57 % 0 in /  0.0 mm
20:45 66.4 °F /  19.1 °C 53.8 °F /  12.1 °C 29.8 in /  1009.0 hPa WSW 1 mph /  1.6 km/h 2 mph /  3.2 km/h 64 % 0 in /  0.0 mm
20:48 70.3 °F /  21.3 °C 54.3 °F /  12.4 °C 29.8 in /  1010.0 hPa Calm     57 % 0 in /  0.0 mm
20:53 70.2 °F /  21.2 °C 54.1 °F /  12.3 °C 29.8 in /  1010.0 hPa Calm     57 % 0 in /  0.0 mm
20:55 66 °F /  18.9 °C 54 °F /  12.2 °C 29.8 in /  1008.0 hPa SW 2 mph /  3.2 km/h 2 mph /  3.2 km/h 65 % 0 in /  0.0 mm
20:58 70.2 °F /  21.2 °C 54.1 °F /  12.3 °C 29.8 in /  1010.0 hPa Calm     57 % 0 in /  0.0 mm
21:03 69.8 °F /  21.0 °C 54 °F /  12.2 °C 29.8 in /  1010.0 hPa Calm     57 % 0 in /  0.0 mm
21:05 65.8 °F /  18.8 °C 54.1 °F /  12.3 °C 29.8 in /  1008.0 hPa Calm   1 mph /  1.6 km/h 66 % 0 in /  0.0 mm
21:08 69.8 °F /  21.0 °C 54 °F /  12.2 °C 29.8 in /  1010.0 hPa Calm     57 % 0 in /  0.0 mm
21:13 69.4 °F /  20.8 °C 54 °F /  12.2 °C 29.8 in /  1010.0 hPa SW 2.4 mph /  3.9 km/h 2.4 mph /  3.9 km/h 58 % 0 in /  0.0 mm
21:15 65.5 °F /  18.6 °C 53.8 °F /  12.1 °C 29.8 in /  1008.0 hPa Calm   1 mph /  1.6 km/h 66 % 0 in /  0.0 mm
21:18 69.1 °F /  20.6 °C 53.8 °F /  12.1 °C 29.8 in /  1010.0 hPa SSW 2.3 mph /  3.7 km/h 2.3 mph /  3.7 km/h 58 % 0 in /  0.0 mm
21:23 68.9 °F /  20.5 °C 53.4 °F /  11.9 °C 29.8 in /  1010.0 hPa West 2.3 mph /  3.7 km/h 2.3 mph /  3.7 km/h 58 % 0 in /  0.0 mm
21:25 65.5 °F /  18.6 °C 53.8 °F /  12.1 °C 29.8 in /  1008.0 hPa WSW 1 mph /  1.6 km/h 2 mph /  3.2 km/h 66 % 0 in /  0.0 mm
21:28 68.7 °F /  20.4 °C 53.2 °F /  11.8 °C 29.8 in /  1010.0 hPa SW 1.6 mph /  2.6 km/h   58 % 0 in /  0.0 mm
21:33 68.5 °F /  20.3 °C 53.2 °F /  11.8 °C 29.8 in /  1010.0 hPa SW 2.3 mph /  3.7 km/h   58 % 0 in /  0.0 mm
21:35 65.5 °F /  18.6 °C 54.1 °F /  12.3 °C 29.8 in /  1008.0 hPa NE 1 mph /  1.6 km/h 2 mph /  3.2 km/h 67 % 0 in /  0.0 mm
21:38 68.4 °F /  20.2 °C 53.1 °F /  11.7 °C 29.8 in /  1010.0 hPa WSW 1.2 mph /  1.9 km/h   58 % 0 in /  0.0 mm
21:43 68.4 °F /  20.2 °C 53.1 °F /  11.7 °C 29.8 in /  1010.0 hPa Calm     58 % 0 in /  0.0 mm
21:45 65.5 °F /  18.6 °C 54.1 °F /  12.3 °C 29.7 in /  1007.0 hPa Calm   2 mph /  3.2 km/h 67 % 0 in /  0.0 mm
21:48 68.2 °F /  20.1 °C 52.9 °F /  11.6 °C 29.8 in /  1010.0 hPa Calm     58 % 0 in /  0.0 mm
21:53 68 °F /  20.0 °C 53.1 °F /  11.7 °C 29.8 in /  1010.0 hPa WSW 1.2 mph /  1.9 km/h   59 % 0 in /  0.0 mm
21:55 65.5 °F /  18.6 °C 54.7 °F /  12.6 °C 29.8 in /  1008.0 hPa Calm   2 mph /  3.2 km/h 68 % 0 in /  0.0 mm
21:58 68 °F /  20.0 °C 53.1 °F /  11.7 °C 29.8 in /  1010.0 hPa Calm     59 % 0 in /  0.0 mm
22:03 67.8 °F /  19.9 °C 53.4 °F /  11.9 °C 29.8 in /  1010.0 hPa Calm     60 % 0 in /  0.0 mm
22:05 65.7 °F /  18.7 °C 55.2 °F /  12.9 °C 29.8 in /  1008.0 hPa Calm     69 % 0 in /  0.0 mm
22:08 67.6 °F /  19.8 °C 53.2 °F /  11.8 °C 29.8 in /  1010.0 hPa Calm     60 % 0 in /  0.0 mm
22:13 67.5 °F /  19.7 °C 53.1 °F /  11.7 °C 29.8 in /  1010.0 hPa Calm     60 % 0 in /  0.0 mm
22:15 65.7 °F /  18.7 °C 55.2 °F /  12.9 °C 29.7 in /  1007.0 hPa NNE 1 mph /  1.6 km/h 2 mph /  3.2 km/h 69 % 0 in /  0.0 mm
22:18 67.5 °F /  19.7 °C 53.1 °F /  11.7 °C 29.8 in /  1010.0 hPa Calm     60 % 0 in /  0.0 mm
22:23 67.3 °F /  19.6 °C 52.9 °F /  11.6 °C 29.8 in /  1010.0 hPa Calm     60 % 0 in /  0.0 mm
22:25 65.7 °F /  18.7 °C 55.6 °F /  13.1 °C 29.7 in /  1007.0 hPa NNE 1 mph /  1.6 km/h 2 mph /  3.2 km/h 70 % 0 in /  0.0 mm
22:28 67.3 °F /  19.6 °C 52.9 °F /  11.6 °C 29.8 in /  1010.0 hPa NW 2.3 mph /  3.7 km/h 2.3 mph /  3.7 km/h 60 % 0 in /  0.0 mm
22:33 67.5 °F /  19.7 °C 53.1 °F /  11.7 °C 29.8 in /  1010.0 hPa NW 1.2 mph /  1.9 km/h 1.2 mph /  1.9 km/h 60 % 0 in /  0.0 mm
22:35 65.5 °F /  18.6 °C 55.4 °F /  13.0 °C 29.7 in /  1007.0 hPa NNE 1 mph /  1.6 km/h 1 mph /  1.6 km/h 70 % 0 in /  0.0 mm
22:38 67.5 °F /  19.7 °C 53.1 °F /  11.7 °C 29.8 in /  1010.0 hPa Calm     60 % 0 in /  0.0 mm
22:43 67.5 °F /  19.7 °C 53.4 °F /  11.9 °C 29.8 in /  1010.0 hPa Calm     61 % 0 in /  0.0 mm
22:45 65.5 °F /  18.6 °C 55.4 °F /  13.0 °C 29.7 in /  1007.0 hPa NNE 1 mph /  1.6 km/h 3 mph /  4.8 km/h 70 % 0 in /  0.0 mm
22:48 67.5 °F /  19.7 °C 53.4 °F /  11.9 °C 29.8 in /  1010.0 hPa Calm     61 % 0 in /  0.0 mm
22:53 67.3 °F /  19.6 °C 53.4 °F /  11.9 °C 29.8 in /  1010.0 hPa Calm     61 % 0 in /  0.0 mm
22:55 65.3 °F /  18.5 °C 55.8 °F /  13.2 °C 29.7 in /  1006.0 hPa NE 3 mph /  4.8 km/h 4 mph /  6.4 km/h 71 % 0 in /  0.0 mm
22:58 67.5 °F /  19.7 °C 53.4 °F /  11.9 °C 29.8 in /  1010.0 hPa Calm     61 % 0 in /  0.0 mm
23:03 67.5 °F /  19.7 °C 53.1 °F /  11.7 °C 29.8 in /  1010.0 hPa Calm     60 % 0 in /  0.0 mm
23:05 65.1 °F /  18.4 °C 55.6 °F /  13.1 °C 29.7 in /  1006.0 hPa NE 3 mph /  4.8 km/h 4 mph /  6.4 km/h 71 % 0 in /  0.0 mm
23:08 67.6 °F /  19.8 °C 53.8 °F /  12.1 °C 29.8 in /  1010.0 hPa Calm     61 % 0 in /  0.0 mm
23:13 67.8 °F /  19.9 °C 53.4 °F /  11.9 °C 29.8 in /  1010.0 hPa NW 1.4 mph /  2.3 km/h 1.4 mph /  2.3 km/h 60 % 0 in /  0.0 mm
23:15 65.1 °F /  18.4 °C 55.9 °F /  13.3 °C 29.7 in /  1006.0 hPa NNE 2 mph /  3.2 km/h 4 mph /  6.4 km/h 72 % 0 in /  0.0 mm
23:18 68 °F /  20.0 °C 53.1 °F /  11.7 °C 29.8 in /  1010.0 hPa NW 1.2 mph /  1.9 km/h 1.2 mph /  1.9 km/h 59 % 0 in /  0.0 mm
23:23 68 °F /  20.0 °C 53.6 °F /  12.0 °C 29.8 in /  1010.0 hPa Calm     60 % 0 in /  0.0 mm
23:25 64.9 °F /  18.3 °C 55.8 °F /  13.2 °C 29.7 in /  1006.0 hPa NE 3 mph /  4.8 km/h 4 mph /  6.4 km/h 72 % 0 in /  0.0 mm
23:28 68 °F /  20.0 °C 53.6 °F /  12.0 °C 29.8 in /  1010.0 hPa Calm     60 % 0 in /  0.0 mm
23:33 68 °F /  20.0 °C 53.6 °F /  12.0 °C 29.8 in /  1010.0 hPa Calm     60 % 0 in /  0.0 mm
23:35 65.1 °F /  18.4 °C 56.1 °F /  13.4 °C 29.7 in /  1006.0 hPa NNE 1 mph /  1.6 km/h 4 mph /  6.4 km/h 73 % 0 in /  0.0 mm
23:38 68 °F /  20.0 °C 53.6 °F /  12.0 °C 29.8 in /  1009.0 hPa Calm     60 % 0 in /  0.0 mm
23:43 67.8 °F /  19.9 °C 54 °F /  12.2 °C 29.8 in /  1009.0 hPa SSW 1.2 mph /  1.9 km/h 1.4 mph /  2.3 km/h 61 % 0 in /  0.0 mm
23:45 65.1 °F /  18.4 °C 56.1 °F /  13.4 °C 29.7 in /  1005.0 hPa NNW 1 mph /  1.6 km/h 3 mph /  4.8 km/h 73 % 0 in /  0.0 mm
23:48 67.3 °F /  19.6 °C 53.4 °F /  11.9 °C 29.8 in /  1009.0 hPa SSW 1.2 mph /  1.9 km/h 1.2 mph /  1.9 km/h 61 % 0 in /  0.0 mm
23:53 66.9 °F /  19.4 °C 53.1 °F /  11.7 °C 29.8 in /  1010.0 hPa SW 2 mph /  3.2 km/h   61 % 0 in /  0.0 mm
23:55 65.1 °F /  18.4 °C 56.1 °F /  13.4 °C 29.7 in /  1006.0 hPa NNW 1 mph /  1.6 km/h 2 mph /  3.2 km/h 73 % 0 in /  0.0 mm
23:58 66.7 °F /  19.3 °C 52.9 °F /  11.6 °C 29.8 in /  1010.0 hPa SW 1.4 mph /  2.3 km/h 1.4 mph /  2.3 km/h 61 % 0 in /  0.0 mm
Meteo Sesrovires
Elogis d' Weather Underground - 3.5 mb

Guio original per  Jim McMurry - jmcmurry@mwt.net Adaptat per a la plantilla per  Wim van der Kuil - Leuven-Template.eu

Trobareu la nostra informacio del temps tambe a:

Weather Underground

AWEKAS